Time;durP1;ratioP1;P1;durP2;ratioP2;P2;SDS_P1;SDS_P2;PMS_P1;PMS_P2;Temp;Humidity;BMP_temperature;BMP_pressure;BME280_temperature;BME280_humidity;BME280_pressure;Samples;Min_cycle;Max_cycle;Signal;HPM_P1;HPM_P2
2023/05/03 00:00:46;;;;;;;;;15.00;15.00;;;;;16.88;49.81;101920.56;2069660;28;46166;-70
2023/05/03 00:01:47;;;;;;;;;16.75;16.50;;;;;16.87;49.42;101921.50;2066677;28;45789;-72
2023/05/03 00:02:47;;;;;;;;;13.75;13.75;;;;;16.87;49.47;101920.63;2070102;28;45638;-72
2023/05/03 00:03:51;;;;;;;;;11.75;10.75;;;;;16.85;49.54;101925.16;2072331;28;45511;-70
2023/05/03 00:04:53;;;;;;;;;13.00;13.00;;;;;16.82;49.83;101923.44;2071749;28;47287;-70
2023/05/03 00:05:53;;;;;;;;;13.00;13.00;;;;;16.81;49.78;101918.13;2071948;28;45820;-71
2023/05/03 00:06:54;;;;;;;;;12.75;12.75;;;;;16.79;50.11;101917.28;2071887;28;46592;-71
2023/05/03 00:07:55;;;;;;;;;13.75;13.25;;;;;16.79;49.96;101919.97;2070888;28;46633;-72
2023/05/03 00:08:56;;;;;;;;;14.60;12.20;;;;;16.76;49.88;101916.44;2063048;28;47299;-71
2023/05/03 00:09:57;;;;;;;;;14.25;12.75;;;;;16.76;49.98;101924.47;2071168;28;46477;-70
2023/05/03 00:11:00;;;;;;;;;13.50;13.50;;;;;16.74;49.82;101912.91;2070217;28;45557;-70
2023/05/03 00:12:01;;;;;;;;;14.60;14.60;;;;;16.73;49.89;101910.28;2071674;28;46991;-68
2023/05/03 00:13:01;;;;;;;;;15.80;12.80;;;;;16.73;49.93;101904.91;2071573;28;45892;-69
2023/05/03 00:14:02;;;;;;;;;16.75;15.25;;;;;16.71;49.69;101907.66;2071087;28;46783;-70
2023/05/03 00:15:03;;;;;;;;;17.00;15.75;;;;;16.71;49.34;101904.09;2070605;28;46207;-70
2023/05/03 00:16:03;;;;;;;;;18.00;16.60;;;;;16.69;49.55;101903.25;2062514;28;46067;-70
2023/05/03 00:17:04;;;;;;;;;16.75;15.50;;;;;16.67;49.59;101900.63;2061105;28;47332;-68
2023/05/03 00:18:06;;;;;;;;;13.50;13.50;;;;;16.67;49.70;101902.41;2074266;28;46327;-70
2023/05/03 00:19:06;;;;;;;;;12.60;12.60;;;;;16.65;49.86;101901.56;2066873;28;46371;-70
2023/05/03 00:20:07;;;;;;;;;14.00;12.00;;;;;16.65;50.01;101894.41;2070671;28;46747;-70
2023/05/03 00:21:07;;;;;;;;;12.25;12.25;;;;;16.64;49.45;101895.34;2079446;28;45295;-70
2023/05/03 00:22:08;;;;;;;;;15.75;14.50;;;;;16.63;49.97;101904.25;2079222;28;46162;-70
2023/05/03 00:23:09;;;;;;;;;11.75;11.25;;;;;16.63;49.69;101896.22;2078886;28;47085;-69
2023/05/03 00:24:09;;;;;;;;;16.25;14.75;;;;;16.62;49.97;101901.63;2079144;28;46606;-70
2023/05/03 00:25:09;;;;;;;;;14.25;13.00;;;;;16.62;49.55;101905.19;2078559;28;46641;-70
2023/05/03 00:26:10;;;;;;;;;12.00;12.00;;;;;16.62;49.81;101904.31;2079001;28;46522;-70
2023/05/03 00:27:10;;;;;;;;;14.25;14.25;;;;;16.61;49.51;101907.91;2080873;28;46237;-71
2023/05/03 00:28:10;;;;;;;;;14.25;12.75;;;;;16.60;49.70;101912.41;2080592;28;46255;-69
2023/05/03 00:29:11;;;;;;;;;18.50;15.50;;;;;16.59;49.64;101907.97;2080255;28;46627;-70
2023/05/03 00:30:12;;;;;;;;;15.00;13.50;;;;;16.59;49.35;101916.00;2072358;28;45479;-71
2023/05/03 00:31:12;;;;;;;;;13.20;13.20;;;;;16.58;49.77;101919.59;2072812;28;45570;-70
2023/05/03 00:32:13;;;;;;;;;14.00;14.00;;;;;16.57;49.28;101911.59;2080201;28;46719;-71
2023/05/03 00:33:14;;;;;;;;;11.75;11.75;;;;;16.58;49.41;101913.38;2072325;28;46723;-72
2023/05/03 00:34:14;;;;;;;;;16.40;13.80;;;;;16.56;49.57;101915.22;2072543;28;46337;-72
2023/05/03 00:35:15;;;;;;;;;15.00;14.75;;;;;16.54;49.47;101909.91;2080432;28;46492;-72
2023/05/03 00:36:15;;;;;;;;;13.75;11.75;;;;;16.54;49.61;101911.69;2064592;28;46309;-72
2023/05/03 00:37:15;;;;;;;;;11.75;10.25;;;;;16.54;49.93;101917.06;2063701;28;46468;-72
2023/05/03 00:38:16;;;;;;;;;12.00;11.75;;;;;16.52;49.29;101914.44;2081056;28;45425;-71
2023/05/03 00:39:16;;;;;;;;;11.25;11.00;;;;;16.52;49.46;101908.19;2080843;28;46898;-71
2023/05/03 00:40:17;;;;;;;;;12.00;12.00;;;;;16.52;49.50;101913.56;2073097;28;46580;-71
2023/05/03 00:41:18;;;;;;;;;16.20;15.20;;;;;16.51;49.48;101907.28;2072493;28;46820;-71
2023/05/03 00:42:18;;;;;;;;;14.00;14.00;;;;;16.52;49.26;101910.88;2077518;28;46436;-71
2023/05/03 00:43:19;;;;;;;;;14.00;14.00;;;;;16.50;49.18;101913.56;2072879;28;46333;-71
2023/05/03 00:44:19;;;;;;;;;13.75;13.00;;;;;16.50;49.22;101916.25;2077775;28;46312;-69
2023/05/03 00:45:19;;;;;;;;;13.50;13.50;;;;;16.49;49.25;101914.47;2080244;28;46177;-72
2023/05/03 00:46:20;;;;;;;;;15.50;14.00;;;;;16.49;49.50;101915.38;2079982;28;45138;-71
2023/05/03 00:47:21;;;;;;;;;17.75;16.00;;;;;16.48;49.48;101910.06;2073033;28;46492;-70
2023/05/03 00:48:21;;;;;;;;;14.00;14.00;;;;;16.46;49.41;101907.41;2073300;28;45905;-71
2023/05/03 00:49:24;;;;;;;;;12.50;12.00;;;;;16.43;48.88;101904.81;2072682;28;46447;-71
2023/05/03 00:50:25;;;;;;;;;13.20;11.60;;;;;16.40;48.95;101909.41;2072638;28;46263;-69
2023/05/03 00:51:26;;;;;;;;;12.00;12.00;;;;;16.37;49.22;101913.00;2073031;28;46333;-70
2023/05/03 00:52:28;;;;;;;;;10.00;10.00;;;;;16.36;49.21;101905.03;2073461;28;46491;-71
2023/05/03 00:53:30;;;;;;;;;13.80;11.60;;;;;16.34;49.19;101907.75;2073131;28;46547;-70
2023/05/03 00:54:31;;;;;;;;;12.80;12.40;;;;;16.32;48.98;101917.63;2073630;28;45730;-70
2023/05/03 00:55:32;;;;;;;;;11.00;11.00;;;;;16.32;49.12;101911.38;2067235;28;46065;-70
2023/05/03 00:56:33;;;;;;;;;13.50;12.50;;;;;16.32;49.16;101911.38;2065383;28;45082;-70
2023/05/03 00:57:33;;;;;;;;;12.00;10.80;;;;;16.32;49.33;101911.38;2072087;28;47258;-70
2023/05/03 00:58:38;;;;;;;;;11.75;10.50;;;;;16.32;49.41;101895.31;2072936;28;46413;-71
2023/05/03 00:59:39;;;;;;;;;10.80;10.40;;;;;16.31;49.12;101889.09;2072919;28;47081;-70
2023/05/03 01:00:40;;;;;;;;;15.00;13.50;;;;;16.30;48.92;101890.00;2073398;28;46125;-72
2023/05/03 01:01:40;;;;;;;;;13.25;12.25;;;;;16.30;48.91;101894.47;2073103;28;46685;-71
2023/05/03 01:02:40;;;;;;;;;12.50;11.25;;;;;16.28;48.97;101893.66;2081340;28;46721;-71
2023/05/03 01:03:41;;;;;;;;;14.75;10.75;;;;;16.28;49.00;101885.63;2080651;28;45486;-71
2023/05/03 01:04:42;;;;;;;;;14.40;13.60;;;;;16.26;48.50;101882.97;2072782;28;45905;-70
2023/05/03 01:06:11;;;;;;;;;14.25;13.25;;;;;16.23;49.01;101882.16;2073111;28;45031;-70
2023/05/03 01:07:28;;;;;;;;;11.20;9.80;;;;;16.20;48.97;101891.16;2037412;28;46710;-70
2023/05/03 01:09:02;;;;;;;;;14.40;12.20;;;;;16.19;48.61;101892.09;2039910;28;46661;-69
2023/05/03 01:10:26;;;;;;;;;12.60;12.60;;;;;16.19;49.05;101890.28;2039754;28;45935;-70
2023/05/03 01:11:40;;;;;;;;;11.40;10.80;;;;;16.16;49.02;101889.50;2040251;28;46906;-69
2023/05/03 01:13:07;;;;;;;;;14.00;13.40;;;;;16.10;48.75;101885.16;2039733;28;46358;-69
2023/05/03 01:14:40;;;;;;;;;19.80;15.00;;;;;16.08;48.87;101884.31;2031563;29;46797;-69
2023/05/03 01:15:49;;;;;;;;;12.00;11.40;;;;;16.07;49.04;101895.97;2023815;29;45978;-69
2023/05/03 01:16:55;;;;;;;;;12.60;12.20;;;;;16.06;48.66;101882.63;2022648;29;46863;-69
2023/05/03 01:18:02;;;;;;;;;12.40;12.20;;;;;16.04;48.75;101888.00;2032629;28;46183;-69
2023/05/03 01:19:18;;;;;;;;;7.40;7.40;;;;;16.01;48.98;101885.41;2039397;28;47113;-70
2023/05/03 01:20:25;;;;;;;;;12.80;12.40;;;;;16.00;48.55;101880.06;2039552;28;46752;-69
2023/05/03 01:21:28;;;;;;;;;13.20;13.20;;;;;15.97;48.67;101886.41;2039584;28;46135;-69
2023/05/03 01:23:15;;;;;;;;;11.20;10.80;;;;;15.94;49.28;101883.81;2039794;28;46525;-69
2023/05/03 01:24:20;;;;;;;;;14.00;12.40;;;;;15.93;49.07;101881.16;2023581;29;46446;-69
2023/05/03 01:25:21;;;;;;;;;13.00;12.00;;;;;15.92;48.87;101877.63;2031672;29;45988;-70
2023/05/03 01:26:22;;;;;;;;;10.25;9.50;;;;;15.92;49.11;101880.28;2031429;29;47135;-70
2023/05/03 01:27:22;;;;;;;;;12.50;12.50;;;;;15.93;49.21;101878.50;2030299;29;45659;-70
2023/05/03 01:28:23;;;;;;;;;13.25;13.25;;;;;15.91;49.39;101886.56;2031014;29;46740;-70
2023/05/03 01:29:23;;;;;;;;;15.75;14.75;;;;;15.90;49.39;101876.78;2023930;29;46800;-69
2023/05/03 01:30:26;;;;;;;;;14.25;14.25;;;;;15.90;49.26;101876.78;2026800;29;45753;-71
2023/05/03 01:31:37;;;;;;;;;12.40;11.80;;;;;15.92;49.04;101884.75;2031959;29;45635;-68
2023/05/03 01:33:04;;;;;;;;;14.00;14.00;;;;;15.93;48.97;101886.53;2031450;29;46481;-70
2023/05/03 01:34:32;;;;;;;;;11.80;11.80;;;;;15.89;48.88;101885.72;2032280;29;45990;-70
2023/05/03 01:35:42;;;;;;;;;12.00;12.00;;;;;15.87;49.10;101880.38;2030001;29;45772;-70
2023/05/03 01:36:44;;;;;;;;;8.20;8.20;;;;;15.87;48.96;101887.53;2031760;29;46746;-70
2023/05/03 01:37:45;;;;;;;;;13.80;13.80;;;;;15.84;48.72;101895.66;2031180;29;46580;-70
2023/05/03 01:38:47;;;;;;;;;13.40;13.00;;;;;15.81;48.91;101893.94;2023280;29;46843;-69
2023/05/03 01:40:01;;;;;;;;;13.40;12.80;;;;;15.80;49.21;101896.66;2023851;29;46612;-70
2023/05/03 01:41:07;;;;;;;;;13.00;12.80;;;;;15.77;48.83;101891.38;2031821;29;46298;-69
2023/05/03 01:42:08;;;;;;;;;11.20;10.40;;;;;15.76;49.18;101887.81;2023462;29;47107;-69
2023/05/03 01:43:11;;;;;;;;;14.00;14.00;;;;;15.74;49.03;101889.63;2023879;29;46144;-70
2023/05/03 01:44:12;;;;;;;;;13.40;11.40;;;;;15.77;49.16;101891.38;2031631;29;45352;-72
2023/05/03 01:45:13;;;;;;;;;13.80;13.00;;;;;15.78;49.37;101891.34;2039377;28;47151;-70
2023/05/03 01:46:14;;;;;;;;;10.00;9.75;;;;;15.79;49.55;101889.53;2047798;28;46295;-70
2023/05/03 01:47:15;;;;;;;;;14.40;13.40;;;;;15.80;49.17;101893.97;2047258;28;46799;-71
2023/05/03 01:48:16;;;;;;;;;14.75;13.50;;;;;15.80;49.53;101896.66;2047037;28;46885;-69
2023/05/03 01:49:17;;;;;;;;;12.60;12.60;;;;;15.80;49.53;101893.97;2047302;28;46923;-69
2023/05/03 01:50:17;;;;;;;;;11.00;10.75;;;;;15.80;49.50;101892.19;2047533;28;45606;-70
2023/05/03 01:51:18;;;;;;;;;15.25;15.25;;;;;15.79;49.67;101903.81;2039565;28;46676;-70
2023/05/03 01:52:18;;;;;;;;;12.00;11.75;;;;;15.79;48.97;101906.47;2039569;28;46680;-69
2023/05/03 01:53:19;;;;;;;;;11.75;11.00;;;;;15.78;49.20;101898.50;2047283;28;45489;-70
2023/05/03 01:54:19;;;;;;;;;13.00;12.00;;;;;15.78;49.39;101898.50;2047648;28;45535;-69
2023/05/03 01:55:19;;;;;;;;;14.50;13.75;;;;;15.77;49.36;101900.28;2048380;28;46944;-69
2023/05/03 01:56:20;;;;;;;;;14.00;13.25;;;;;15.77;49.59;101904.75;2063616;28;46649;-70
2023/05/03 01:57:20;;;;;;;;;12.75;11.00;;;;;15.77;49.52;101902.09;2063520;28;46087;-70
2023/05/03 01:58:21;;;;;;;;;12.00;11.25;;;;;15.75;49.57;101904.81;2055455;28;47166;-69
2023/05/03 01:59:21;;;;;;;;;15.00;13.75;;;;;15.75;49.69;101903.91;2055222;28;46766;-69
2023/05/03 02:00:22;;;;;;;;;14.00;13.00;;;;;15.74;49.92;101902.13;2068248;28;45612;-69
2023/05/03 02:01:22;;;;;;;;;14.00;14.00;;;;;15.73;49.37;101911.09;2071864;28;47049;-70
2023/05/03 02:02:22;;;;;;;;;11.75;11.75;;;;;15.71;49.24;101902.22;2072429;28;46372;-69
2023/05/03 02:03:23;;;;;;;;;13.00;12.25;;;;;15.69;49.48;101907.63;2072616;28;46227;-70
2023/05/03 02:04:23;;;;;;;;;14.25;13.25;;;;;15.66;49.69;101910.38;2072590;28;46139;-69
2023/05/03 02:05:24;;;;;;;;;13.25;13.00;;;;;15.66;49.64;101902.34;2072349;28;45127;-70
2023/05/03 02:06:25;;;;;;;;;14.00;13.20;;;;;15.66;49.74;101909.50;2072533;28;46662;-69
2023/05/03 02:07:25;;;;;;;;;10.75;8.25;;;;;15.65;49.40;101908.63;2072662;28;46575;-70
2023/05/03 02:08:26;;;;;;;;;14.75;14.00;;;;;15.65;49.88;101905.94;2063724;28;45637;-68
2023/05/03 02:09:26;;;;;;;;;13.50;13.25;;;;;15.65;49.75;101905.06;2070614;28;46037;-71
2023/05/03 02:10:26;;;;;;;;;15.50;13.50;;;;;15.64;50.09;101909.53;2074534;28;45775;-69
2023/05/03 02:11:27;;;;;;;;;14.25;13.75;;;;;15.65;49.93;101913.09;2077181;28;45787;-71
2023/05/03 02:12:27;;;;;;;;;15.25;14.25;;;;;15.64;49.76;101909.53;2076561;28;46589;-69
2023/05/03 02:13:27;;;;;;;;;12.25;12.25;;;;;15.63;50.13;101918.47;2074638;28;46302;-70
2023/05/03 02:14:28;;;;;;;;;14.50;13.50;;;;;15.62;49.43;101903.31;2075008;28;46011;-69
2023/05/03 02:15:28;;;;;;;;;11.00;10.50;;;;;15.62;49.59;101911.34;2074280;28;47017;-69
2023/05/03 02:16:28;;;;;;;;;18.75;17.00;;;;;15.61;49.65;101906.91;2077044;28;47630;-69
2023/05/03 02:17:29;;;;;;;;;12.25;11.00;;;;;15.62;49.59;101910.47;2073068;28;45725;-69
2023/05/03 02:18:30;;;;;;;;;15.75;13.25;;;;;15.61;49.78;101909.56;2074335;28;45484;-67
2023/05/03 02:19:30;;;;;;;;;14.20;14.20;;;;;15.60;49.75;101902.47;2078621;28;46855;-70
2023/05/03 02:20:35;;;;;;;;;13.75;13.75;;;;;15.60;49.85;101905.16;2064842;28;45772;-69
2023/05/03 02:21:36;;;;;;;;;13.80;13.80;;;;;15.59;49.42;101903.34;2057473;28;46422;-71
2023/05/03 02:22:36;;;;;;;;;13.80;12.40;;;;;15.57;49.42;101906.06;2071805;28;46684;-68
2023/05/03 02:23:37;;;;;;;;;14.50;14.50;;;;;15.57;49.98;101910.53;2068993;28;46218;-70
2023/05/03 02:24:38;;;;;;;;;15.50;13.50;;;;;15.56;49.99;101908.78;2069314;28;44968;-69
2023/05/03 02:25:40;;;;;;;;;14.80;13.60;;;;;15.55;49.57;101912.38;2077925;28;45876;-70
2023/05/03 02:26:41;;;;;;;;;18.80;16.00;;;;;15.55;49.77;101904.34;2074379;28;46244;-69
2023/05/03 02:27:41;;;;;;;;;14.00;11.50;;;;;15.53;49.85;101907.06;2077492;28;46781;-70
2023/05/03 02:28:41;;;;;;;;;14.75;13.25;;;;;15.53;50.11;101908.88;2085513;28;45725;-70
2023/05/03 02:29:42;;;;;;;;;11.25;11.00;;;;;15.51;50.05;101908.91;2081868;28;45976;-70
2023/05/03 02:30:43;;;;;;;;;17.50;14.75;;;;;15.51;49.64;101911.59;2072336;28;46509;-69
2023/05/03 02:31:43;;;;;;;;;14.00;14.00;;;;;15.50;50.00;101901.78;2076275;28;46759;-70
2023/05/03 02:32:43;;;;;;;;;15.25;12.75;;;;;15.50;49.77;101911.59;2076522;28;46304;-70
2023/05/03 02:33:44;;;;;;;;;18.75;17.25;;;;;15.48;49.89;101911.63;2065280;28;46642;-69
2023/05/03 02:34:47;;;;;;;;;17.00;16.25;;;;;15.47;49.54;101911.66;2072135;28;46362;-70
2023/05/03 02:35:47;;;;;;;;;12.40;11.60;;;;;15.46;50.07;101907.22;2064798;28;46138;-68
2023/05/03 02:36:47;;;;;;;;;13.25;13.25;;;;;15.45;49.83;101909.03;2063265;28;46248;-69
2023/05/03 02:37:48;;;;;;;;;15.25;14.75;;;;;15.45;50.00;101905.47;2073673;28;46793;-69
2023/05/03 02:38:48;;;;;;;;;18.50;15.50;;;;;15.45;49.92;101905.47;2079887;28;46553;-69
2023/05/03 02:39:49;;;;;;;;;10.75;10.75;;;;;15.45;49.97;101910.81;2066264;28;46757;-69
2023/05/03 02:40:50;;;;;;;;;15.75;15.75;;;;;15.44;49.85;101901.91;2068113;28;46738;-69
2023/05/03 02:41:50;;;;;;;;;13.25;13.25;;;;;15.43;50.02;101897.50;2078496;28;46469;-68
2023/05/03 02:42:50;;;;;;;;;13.50;13.00;;;;;15.43;49.83;101897.50;2072367;28;45114;-69
2023/05/03 02:43:51;;;;;;;;;11.75;11.75;;;;;15.42;50.05;101900.22;2071469;28;45581;-70
2023/05/03 02:44:51;;;;;;;;;13.25;12.00;;;;;15.41;49.72;101895.78;2067562;28;45930;-68
2023/05/03 02:45:51;;;;;;;;;17.25;16.25;;;;;15.41;49.93;101906.47;2071383;28;46496;-68
2023/05/03 02:46:53;;;;;;;;;13.75;13.75;;;;;15.39;49.77;101903.84;2072182;28;46760;-70
2023/05/03 02:47:53;;;;;;;;;15.80;14.80;;;;;15.39;49.89;101905.63;2072284;28;46255;-70
2023/05/03 02:48:54;;;;;;;;;15.75;12.50;;;;;15.38;49.54;101907.44;2071799;28;46643;-69
2023/05/03 02:49:54;;;;;;;;;14.00;13.00;;;;;15.36;49.89;101903.88;2071992;28;46567;-71
2023/05/03 02:50:55;;;;;;;;;15.75;14.50;;;;;15.34;50.27;101899.50;2072312;28;46625;-69
2023/05/03 02:51:56;;;;;;;;;17.50;17.00;;;;;15.33;50.21;101906.63;2072311;28;46657;-68
2023/05/03 02:52:57;;;;;;;;;15.40;14.00;;;;;15.32;50.26;101910.22;2072116;28;46663;-68
2023/05/03 02:53:57;;;;;;;;;14.75;14.75;;;;;15.32;50.09;101908.44;2072474;28;45637;-70
2023/05/03 02:54:57;;;;;;;;;15.75;14.00;;;;;15.31;50.28;101912.03;2072505;28;46439;-69
2023/05/03 02:55:58;;;;;;;;;14.50;14.50;;;;;15.30;50.04;101909.38;2072401;28;46140;-70
2023/05/03 02:56:58;;;;;;;;;12.00;11.00;;;;;15.28;49.89;101905.88;2072317;28;45544;-69
2023/05/03 02:57:58;;;;;;;;;11.75;11.75;;;;;15.27;50.21;101905.00;2071855;28;46538;-69
2023/05/03 02:58:59;;;;;;;;;16.00;16.00;;;;;15.28;50.27;101901.41;2072955;28;46811;-69
2023/05/03 02:59:59;;;;;;;;;14.75;13.75;;;;;15.28;50.56;101897.84;2073745;28;46388;-71
2023/05/03 03:01:00;;;;;;;;;14.75;14.25;;;;;15.29;50.36;101902.28;2072382;28;46873;-70
2023/05/03 03:02:00;;;;;;;;;13.50;12.00;;;;;15.28;50.16;101908.53;2072807;28;46885;-71
2023/05/03 03:03:00;;;;;;;;;14.25;14.25;;;;;15.27;50.49;101904.09;2072963;28;46247;-69
2023/05/03 03:04:01;;;;;;;;;13.50;13.50;;;;;15.26;50.56;101900.56;2072064;28;46798;-69
2023/05/03 03:05:01;;;;;;;;;17.00;15.75;;;;;15.24;50.17;101897.00;2072208;28;46721;-68
2023/05/03 03:06:01;;;;;;;;;17.00;14.25;;;;;15.24;50.21;101894.34;2072080;28;46046;-69
2023/05/03 03:07:02;;;;;;;;;17.75;16.75;;;;;15.24;50.06;101896.13;2071486;28;46646;-69
2023/05/03 03:08:02;;;;;;;;;14.25;14.25;;;;;15.21;50.27;101891.72;2064253;28;46509;-68
2023/05/03 03:09:03;;;;;;;;;11.50;10.25;;;;;15.21;50.08;101891.72;2068921;28;46251;-72
2023/05/03 03:10:05;;;;;;;;;15.40;15.20;;;;;15.20;50.25;101887.31;2055032;28;45756;-69
2023/05/03 03:11:06;;;;;;;;;17.00;14.60;;;;;15.20;50.42;101887.31;2063079;28;46416;-70
2023/05/03 03:12:06;;;;;;;;;14.25;13.50;;;;;15.20;50.17;101883.75;2071282;28;46432;-70
2023/05/03 03:13:07;;;;;;;;;17.00;16.00;;;;;15.18;50.24;101883.78;2071001;28;46124;-70
2023/05/03 03:14:07;;;;;;;;;14.50;13.50;;;;;15.18;50.50;101878.44;2071042;28;46543;-71
2023/05/03 03:15:08;;;;;;;;;16.50;14.75;;;;;15.19;50.42;101880.19;2063230;28;46077;-69
2023/05/03 03:16:09;;;;;;;;;14.20;12.80;;;;;15.19;50.58;101877.53;2054271;28;46365;-68
2023/05/03 03:17:10;;;;;;;;;13.75;11.50;;;;;15.20;50.63;101881.94;2039076;28;45653;-69
2023/05/03 03:18:10;;;;;;;;;15.50;13.75;;;;;15.20;50.34;101876.59;2052426;28;46713;-70
2023/05/03 03:19:11;;;;;;;;;16.00;16.00;;;;;15.19;50.59;101872.19;2062650;28;46283;-71
2023/05/03 03:20:11;;;;;;;;;14.00;13.25;;;;;15.19;50.10;101872.19;2071244;28;46772;-70
2023/05/03 03:21:11;;;;;;;;;13.50;13.50;;;;;15.18;50.49;101877.56;2070848;28;46282;-69
2023/05/03 03:22:12;;;;;;;;;18.00;17.00;;;;;15.18;50.60;101866.88;2071122;28;48009;-70
2023/05/03 03:23:13;;;;;;;;;19.50;16.25;;;;;15.17;50.43;101865.09;2071640;28;46522;-70
2023/05/03 03:24:14;;;;;;;;;18.60;16.00;;;;;15.15;50.46;101875.84;2063073;28;46657;-70
2023/05/03 03:25:15;;;;;;;;;15.60;13.60;;;;;15.14;49.93;101866.06;2063452;28;46205;-69
2023/05/03 03:26:15;;;;;;;;;18.25;18.25;;;;;15.13;50.22;101866.09;2071220;28;45444;-69
2023/05/03 03:27:15;;;;;;;;;14.75;14.75;;;;;15.12;50.74;101867.91;2065597;28;47126;-69
2023/05/03 03:28:16;;;;;;;;;16.25;16.25;;;;;15.11;50.42;101873.25;2069149;28;46724;-69
2023/05/03 03:29:16;;;;;;;;;16.50;15.00;;;;;15.10;50.49;101867.03;2074276;28;46702;-69
2023/05/03 03:30:16;;;;;;;;;15.25;14.75;;;;;15.10;50.36;101866.16;2072993;28;46674;-69
2023/05/03 03:31:17;;;;;;;;;17.00;14.00;;;;;15.09;50.05;101869.72;2071067;28;46786;-69
2023/05/03 03:32:17;;;;;;;;;14.75;13.75;;;;;15.07;50.12;101861.75;2071482;28;45694;-69
2023/05/03 03:33:17;;;;;;;;;15.25;14.25;;;;;15.05;50.61;101863.59;2063109;28;45897;-70
2023/05/03 03:34:18;;;;;;;;;15.25;14.75;;;;;15.05;50.24;101865.38;2062958;28;46353;-71
2023/05/03 03:35:18;;;;;;;;;14.25;12.50;;;;;15.02;50.59;101859.19;2071271;28;46191;-70
2023/05/03 03:36:19;;;;;;;;;15.50;14.50;;;;;15.03;50.36;101860.06;2071166;28;46679;-70
2023/05/03 03:37:22;;;;;;;;;18.00;16.60;;;;;15.02;50.25;101863.66;2070743;28;47476;-69
2023/05/03 03:38:22;;;;;;;;;16.60;14.60;;;;;14.99;50.46;101864.63;2071198;28;46322;-70
2023/05/03 03:39:22;;;;;;;;;16.25;15.25;;;;;14.96;50.28;101851.28;2071785;28;46566;-70
2023/05/03 03:40:23;;;;;;;;;17.00;14.50;;;;;14.95;50.65;101859.34;2072107;28;45695;-70
2023/05/03 03:41:23;;;;;;;;;12.75;11.25;;;;;14.93;50.76;101861.19;2071885;28;46458;-68
2023/05/03 03:42:24;;;;;;;;;12.25;12.25;;;;;14.92;50.85;101860.28;2070339;28;46423;-69
2023/05/03 03:43:25;;;;;;;;;18.00;16.80;;;;;14.91;50.37;101855.88;2070747;28;46855;-70
2023/05/03 03:44:25;;;;;;;;;14.00;13.75;;;;;14.92;50.84;101854.06;2071162;28;45480;-69
2023/05/03 03:45:25;;;;;;;;;13.25;12.50;;;;;14.92;50.85;101854.94;2071294;28;46462;-70
2023/05/03 03:46:26;;;;;;;;;15.00;14.75;;;;;14.91;50.36;101853.19;2071551;28;46391;-69
2023/05/03 03:47:26;;;;;;;;;14.75;14.75;;;;;14.93;50.42;101861.19;2071901;28;46250;-69
2023/05/03 03:48:26;;;;;;;;;21.75;20.00;;;;;14.89;50.55;101852.34;2071921;28;46693;-70
2023/05/03 03:49:27;;;;;;;;;17.00;15.75;;;;;14.88;50.44;101863.06;2071477;28;46765;-70
2023/05/03 03:50:28;;;;;;;;;18.75;15.00;;;;;14.86;50.64;101854.19;2063612;28;45553;-69
2023/05/03 03:51:28;;;;;;;;;15.00;15.00;;;;;14.85;50.99;101855.09;2071215;28;46880;-70
2023/05/03 03:52:29;;;;;;;;;19.50;18.25;;;;;14.83;50.60;101852.47;2071704;28;45731;-69
2023/05/03 03:53:29;;;;;;;;;18.75;18.75;;;;;14.82;50.68;101856.06;2071838;28;46654;-69
2023/05/03 03:54:29;;;;;;;;;16.00;15.00;;;;;14.82;50.91;101853.38;2072177;28;46284;-71
2023/05/03 03:55:30;;;;;;;;;17.75;15.25;;;;;14.82;50.41;101857.84;2071869;28;45963;-69
2023/05/03 03:56:30;;;;;;;;;17.75;16.75;;;;;14.80;50.70;101857.00;2071625;28;46289;-69
2023/05/03 03:57:30;;;;;;;;;16.00;16.00;;;;;14.78;50.84;101859.72;2071802;28;46844;-68
2023/05/03 03:58:31;;;;;;;;;12.50;12.50;;;;;14.77;51.10;101857.97;2071499;28;46782;-71
2023/05/03 03:59:31;;;;;;;;;15.50;15.50;;;;;14.77;50.61;101859.75;2071541;28;46154;-69
2023/05/03 04:00:34;;;;;;;;;17.75;15.75;;;;;14.76;50.78;101858.00;2071448;28;46230;-69
2023/05/03 04:01:34;;;;;;;;;17.40;16.20;;;;;14.74;50.81;101855.34;2070432;28;46249;-65
2023/05/03 04:02:35;;;;;;;;;18.00;15.50;;;;;14.72;50.78;101859.81;2070919;28;46508;-64
2023/05/03 04:03:35;;;;;;;;;19.75;18.75;;;;;14.70;50.88;101853.63;2078166;28;46391;-65
2023/05/03 04:04:36;;;;;;;;;16.75;15.25;;;;;14.67;50.79;101862.59;2083539;28;47068;-65
2023/05/03 04:05:36;;;;;;;;;16.00;16.00;;;;;14.64;50.51;101859.13;2071636;28;47045;-66
2023/05/03 04:06:36;;;;;;;;;19.75;18.00;;;;;14.62;50.71;101855.59;2067850;28;46455;-65
2023/05/03 04:07:37;;;;;;;;;20.50;17.25;;;;;14.60;50.95;101852.06;2074251;28;46986;-65
2023/05/03 04:08:37;;;;;;;;;16.00;14.25;;;;;14.58;50.96;101857.44;2078068;28;48944;-64
2023/05/03 04:09:37;;;;;;;;;22.00;19.00;;;;;14.56;50.65;101861.94;2075910;28;46635;-67
2023/05/03 04:10:38;;;;;;;;;17.50;17.50;;;;;14.54;50.63;101852.19;2079935;28;45831;-66
2023/05/03 04:11:39;;;;;;;;;17.00;16.00;;;;;14.51;51.06;101853.13;2078750;28;46358;-67
2023/05/03 04:12:39;;;;;;;;;16.00;15.60;;;;;14.50;50.92;101853.19;2077790;28;46543;-68
2023/05/03 04:13:39;;;;;;;;;20.50;20.50;;;;;14.47;51.11;101855.88;2079883;28;46214;-67
2023/05/03 04:14:40;;;;;;;;;18.75;18.50;;;;;14.45;51.08;101860.38;2078094;28;46127;-67
2023/05/03 04:15:40;;;;;;;;;20.50;19.50;;;;;14.43;50.67;101860.38;2078303;28;45922;-68
2023/05/03 04:16:40;;;;;;;;;20.00;17.25;;;;;14.41;51.40;101857.75;2080132;28;45827;-66
2023/05/03 04:17:41;;;;;;;;;19.75;16.50;;;;;14.39;50.94;101853.34;2074500;28;44944;-66
2023/05/03 04:18:41;;;;;;;;;17.00;14.50;;;;;14.36;51.14;101856.97;2071330;28;46879;-67
2023/05/03 04:19:42;;;;;;;;;19.00;18.75;;;;;14.35;51.13;101859.63;2079291;28;46442;-67
2023/05/03 04:20:42;;;;;;;;;16.75;16.00;;;;;14.33;50.98;101873.03;2078421;28;46294;-68
2023/05/03 04:21:43;;;;;;;;;13.25;13.25;;;;;14.32;51.00;101865.03;2079107;28;46387;-66
2023/05/03 04:22:44;;;;;;;;;17.00;16.75;;;;;14.31;50.83;101861.50;2077766;28;45745;-63
2023/05/03 04:23:45;;;;;;;;;15.00;13.75;;;;;14.30;51.37;101869.53;2078291;28;46366;-66
2023/05/03 04:24:46;;;;;;;;;16.75;16.75;;;;;14.28;50.98;101858.00;2075761;28;46859;-66
2023/05/03 04:25:47;;;;;;;;;17.40;16.60;;;;;14.27;51.17;101862.47;2073024;28;46411;-66
2023/05/03 04:26:50;;;;;;;;;16.75;16.00;;;;;14.26;50.86;101860.72;2071307;28;46283;-65
2023/05/03 04:27:50;;;;;;;;;10.80;9.00;;;;;14.25;50.99;101860.75;2071254;28;46559;-66
2023/05/03 04:28:50;;;;;;;;;16.50;15.75;;;;;14.23;51.07;101863.44;2072195;28;46319;-65
2023/05/03 04:29:51;;;;;;;;;16.50;13.50;;;;;14.21;51.34;101859.00;2071719;28;45479;-65
2023/05/03 04:30:52;;;;;;;;;18.25;18.00;;;;;14.19;51.38;101866.19;2071365;28;46778;-67
2023/05/03 04:31:52;;;;;;;;;18.60;18.40;;;;;14.16;51.28;101855.56;2071991;28;46548;-66
2023/05/03 04:32:54;;;;;;;;;18.50;16.50;;;;;14.16;51.39;101852.91;2071370;28;45826;-65
2023/05/03 04:33:55;;;;;;;;;18.80;15.80;;;;;14.13;51.52;101860.06;2077048;28;46769;-66
2023/05/03 04:34:56;;;;;;;;;16.80;15.60;;;;;14.13;51.43;101859.19;2079781;28;45802;-66
2023/05/03 04:35:56;;;;;;;;;21.00;19.00;;;;;14.13;51.35;101859.19;2079176;28;46150;-66
2023/05/03 04:36:57;;;;;;;;;15.00;15.00;;;;;14.11;51.40;101864.53;2071439;28;46493;-66
2023/05/03 04:37:57;;;;;;;;;17.25;15.75;;;;;14.10;51.20;101867.22;2071346;28;46590;-66
2023/05/03 04:38:57;;;;;;;;;16.75;14.50;;;;;14.09;51.56;101861.00;2071706;28;46476;-66
2023/05/03 04:39:58;;;;;;;;;16.00;15.50;;;;;14.08;51.65;101864.56;2071100;28;46421;-66
2023/05/03 04:40:58;;;;;;;;;16.25;15.25;;;;;14.08;51.22;101866.38;2070553;28;46562;-67
2023/05/03 04:41:58;;;;;;;;;16.25;16.25;;;;;14.07;51.37;101861.94;2072258;28;46297;-66